Latest Weather Observations for Pallamana

IDS60901

Issued at 10:55 pm CST Thursday 31 July 2014 (issued every 10 minutes, with the page automatically refreshed every 10 minutes)

About weather observations | Map of Adelaide area stations | Latest observations for Adelaide area | Other Formats
Station Details ID: 024584 Name: PALLAMANA AERODROME Lat: -35.06 Lon: 139.23 Height: 45.0 m
Data from the previous 72 hours. | See also: Recent months at Pallamana
Date/Time
CST
Tmp

°C
App
Tmp
°C
Dew
Point
°C
Rel
Hum
%
Delta-T

°C
Wind Press
QNH
hPa
Press
MSL
hPa
Rain
since
9 am
mm
Dir
 
Spd
km/h
Gust
km/h
Spd
kts
Gust
kts
31/10:30pm 6.5 1.9 3.7 82 1.2 WNW 17 24 9 13 1010.1 1010.2 3.0
31/10:00pm 6.2 2.2 3.1 80 1.3 W 13 20 7 11 1010.3 - 3.0
31/09:30pm 6.5 0.9 3.2 79 1.4 WNW 22 32 12 17 1010.1 1010.2 3.0
31/09:00pm 7.4 -0.5 4.2 80 1.4 W 35 48 19 26 1010.0 1010.1 3.0
31/08:57pm 7.4 -1.3 4.2 80 1.4 W 39 48 21 26 1009.9 - 3.0
31/08:30pm 6.3 1.3 3.7 83 1.1 WNW 19 26 10 14 1009.5 1009.6 3.0
31/08:00pm 6.6 0.6 3.5 80 1.3 W 24 33 13 18 1009.3 - 3.0
31/07:35pm 7.9 1.1 5.2 83 1.2 W 30 56 16 30 1009.6 - 1.6
31/07:30pm 8.0 3.4 5.6 85 1.1 SW 19 26 10 14 1009.3 1009.4 1.6
31/07:00pm 7.9 3.0 4.2 77 1.6 W 19 24 10 13 1008.4 - 1.6
31/06:30pm 8.4 2.6 4.6 77 1.7 W 24 32 13 17 1008.0 1008.1 1.6
31/06:00pm 8.2 1.1 6.2 87 0.9 WSW 33 54 18 29 1007.7 1007.8 1.6
31/05:30pm 8.9 2.0 7.2 89 0.8 WSW 33 52 18 28 1007.2 1007.3 1.6
31/05:22pm 9.1 2.4 7.4 89 0.8 WSW 32 52 17 28 1006.8 - 1.4
31/05:00pm 9.5 3.1 8.5 93 0.5 WSW 32 41 17 22 1006.3 - 0.8
31/04:30pm 10.4 5.8 9.6 95 0.4 WSW 24 30 13 16 1005.6 1005.7 0.4
31/04:00pm 11.6 5.4 9.2 85 1.2 W 32 43 17 23 1005.1 - 0.2
31/03:30pm 12.0 5.5 10.5 90 0.8 W 35 54 19 29 1004.5 1004.6 0.2
31/03:00pm 12.7 5.7 9.8 82 1.5 W 37 57 20 31 1004.2 1004.3 0.0
31/02:55pm 12.6 5.2 9.7 82 1.5 W 39 57 21 31 1003.9 - 0.0
31/02:30pm 12.7 6.2 10.2 85 1.3 W 35 52 19 28 1003.8 1003.9 0.0
31/02:21pm 13.2 7.1 10.3 82 1.5 W 33 52 18 28 1003.9 - 0.0
31/02:00pm 12.1 6.5 10.2 88 1.0 WSW 30 41 16 22 1003.9 - 0.0
31/01:30pm 11.7 8.5 11.1 96 0.3 SW 19 26 10 14 1003.7 1003.8 0.0
31/01:00pm 11.6 5.1 11.6 100 0.0 SW 37 46 20 25 1003.4 - 0.0
31/12:57pm 12.0 5.6 12.0 100 0.0 SW 37 44 20 24 1003.4 - 0.0
31/12:52pm 14.2 6.8 14.2 100 0.0 W 46 65 25 35 1003.2 - 0.0
31/12:50pm 15.7 7.6 14.3 91 0.8 W 50 65 27 35 1002.9 - 0.0
31/12:30pm 17.3 11.4 15.8 91 0.9 NW 41 59 22 32 1002.3 1002.4 0.0
31/12:00pm 17.4 11.2 15.9 91 0.9 NW 43 61 23 33 1002.1 1002.2 0.0
31/11:30am 17.5 11.2 15.6 89 1.1 NW 43 76 23 41 1002.5 1002.6 0.0
31/11:00am 17.2 11.1 15.1 87 1.2 NW 41 65 22 35 1002.9 - 0.0
31/10:30am 16.7 11.5 14.4 86 1.3 NW 35 56 19 30 1003.2 1003.3 0.0
31/10:00am 16.3 10.5 13.8 85 1.4 NW 37 59 20 32 1003.9 - 0.0
31/09:43am 16.1 11.9 13.4 84 1.5 NW 28 59 15 32 1004.2 - 0.0
31/09:30am 15.9 12.0 13.4 85 1.4 WNW 26 59 14 32 1004.5 1004.6 0.0
31/09:00am 15.4 10.1 12.5 83 1.6 WNW 32 52 17 28 1004.8 1004.9 0.0
31/08:39am 15.1 10.5 12.2 83 1.6 NW 28 50 15 27 1005.0 - 0.0
31/08:30am 14.9 11.7 12.0 83 1.6 NW 20 35 11 19 1005.1 1005.2 0.0
31/08:00am 14.1 10.8 11.5 84 1.4 NW 20 33 11 18 1005.3 - 0.0
31/07:30am 13.9 9.4 11.5 85 1.3 WNW 26 44 14 24 1005.2 1005.3 0.0
31/07:10am 14.2 9.3 11.2 82 1.6 WNW 28 48 15 26 1005.7 - 0.0
31/07:00am 14.3 10.2 11.3 82 1.6 WNW 24 41 13 22 1005.9 - 0.0
31/06:30am 14.3 11.0 10.9 80 1.8 NW 19 35 10 19 1005.9 1006.0 0.0
31/06:00am 13.8 10.2 9.9 77 2.0 NW 19 28 10 15 1005.8 1005.9 0.0
31/05:30am 13.5 10.4 8.8 73 2.4 NNW 15 28 8 15 1006.0 1006.1 0.0
31/05:00am 11.2 8.7 8.1 81 1.5 N 11 20 6 11 1006.2 - 0.0
31/04:30am 12.6 9.5 8.8 77 1.9 NNE 15 20 8 11 1006.4 1006.5 0.0
31/04:00am 12.9 9.0 8.7 75 2.1 NNE 19 24 10 13 1006.3 - 0.0
31/03:30am 13.6 9.5 7.7 67 2.9 N 19 30 10 16 1006.9 1007.0 0.0
31/03:00am 12.7 8.9 7.4 70 2.6 NNW 17 26 9 14 1007.4 1007.5 0.0
31/02:30am 13.0 8.7 7.0 67 2.9 NNW 19 30 10 16 1008.1 1008.2 0.0
31/02:00am 12.9 8.0 6.9 67 2.9 NNW 22 32 12 17 1008.4 - 0.0
31/01:30am 13.8 9.3 6.8 62 3.4 NNW 20 35 11 19 1008.9 1009.0 0.0
31/01:00am 10.4 6.2 8.4 87 1.0 NE 20 28 11 15 1009.4 - 0.0
31/12:30am 10.8 6.3 8.6 86 1.1 NE 22 28 12 15 1010.0 1010.1 0.0
31/12:00am 10.9 8.2 8.9 87 1.0 NNE 13 19 7 10 1010.7 1010.8 0.0
 
Date/Time
CST
Tmp

°C
App
Tmp
°C
Dew
Point
°C
Rel
Hum
%
Delta-T

°C
Wind Press
QNH
hPa
Press
MSL
hPa
Rain
since
9 am
mm
Dir
 
Spd
km/h
Gust
km/h
Spd
kts
Gust
kts
30/11:30pm 10.7 7.0 9.3 91 0.7 NE 19 28 10 15 1011.0 1011.1 0.0
30/11:00pm 11.4 8.1 9.6 89 0.9 NE 17 26 9 14 1011.5 - 0.0
30/10:30pm 11.6 7.9 10.2 91 0.7 NE 20 28 11 15 1012.1 1012.1 0.0
30/10:00pm 12.2 8.3 10.9 92 0.7 NNE 22 28 12 15 1012.8 - 0.0
30/09:30pm 13.0 9.3 11.5 91 0.8 NNE 22 30 12 16 1013.1 1013.1 0.0
30/09:00pm 13.4 10.9 10.9 85 1.3 N 15 24 8 13 1013.5 1013.5 0.0
30/08:30pm 15.1 11.9 11.2 77 2.1 N 19 24 10 13 1013.9 1013.9 0.0
30/08:00pm 14.1 10.8 11.7 85 1.3 N 20 24 11 13 1014.1 - 0.0
30/07:30pm 14.1 10.8 11.7 85 1.3 NNW 20 30 11 16 1014.4 1014.4 0.0
30/07:00pm 14.5 11.5 12.1 85 1.3 NNW 19 24 10 13 1014.5 - 0.0
30/06:30pm 15.2 12.1 12.1 82 1.7 NNW 20 28 11 15 1014.4 1014.4 0.0
30/06:00pm 15.6 12.0 11.7 77 2.1 NNW 22 33 12 18 1014.3 1014.3 0.0
30/05:30pm 15.0 12.3 13.0 88 1.1 N 19 24 10 13 1014.1 1014.1 0.0
30/05:00pm 15.3 13.7 13.9 91 0.8 NNW 15 19 8 10 1014.2 - 0.0
30/04:30pm 15.9 12.1 13.6 86 1.3 NW 26 37 14 20 1014.4 1014.4 0.0
30/04:00pm 16.1 13.5 13.8 86 1.3 NNW 20 30 11 16 1014.4 - 0.0
30/03:30pm 16.3 13.8 14.0 86 1.3 NW 20 28 11 15 1014.7 1014.7 0.0
30/03:00pm 16.6 14.4 14.3 86 1.3 NW 19 28 10 15 1014.9 1014.9 0.0
30/02:30pm 16.7 14.5 14.4 86 1.3 NW 19 28 10 15 1015.1 1015.1 0.0
30/02:00pm 17.2 15.2 15.0 87 1.3 WNW 19 24 10 13 1015.3 - 0.0
30/01:30pm 17.1 14.0 14.5 85 1.5 WNW 24 39 13 21 1015.6 1015.6 0.0
30/01:00pm 16.9 13.7 14.3 85 1.5 WNW 24 37 13 20 1015.9 - 0.0
30/12:30pm 17.1 14.0 14.5 85 1.5 WNW 24 33 13 18 1016.3 1016.3 0.0
30/12:00pm 17.2 12.2 13.5 79 2.1 NW 32 43 17 23 1016.7 1016.7 0.0
30/11:30am 16.5 11.7 11.7 73 2.6 WNW 28 37 15 20 1017.4 1017.4 0.0
30/11:00am 16.5 13.2 11.5 72 2.7 NW 20 35 11 19 1017.7 - 0.0
30/10:30am 15.5 12.1 11.2 75 2.3 WNW 20 32 11 17 1018.0 1018.0 0.0
30/10:00am 15.0 12.7 11.9 82 1.7 NW 15 20 8 11 1018.2 - 0.0
30/09:30am 14.9 12.1 11.5 80 1.8 WNW 17 22 9 12 1018.0 1018.0 0.0
30/09:00am 15.0 12.4 11.9 82 1.7 NW 17 24 9 13 1017.8 1017.8 0.6
30/08:30am 14.1 11.4 11.7 85 1.3 NW 17 22 9 12 1017.8 1017.8 0.6
30/08:00am 14.1 11.3 11.3 83 1.5 NW 17 28 9 15 1017.7 - 0.6
30/07:30am 14.2 8.3 10.4 78 2.0 NW 32 41 17 22 1017.5 1017.5 0.6
30/07:26am 14.1 8.0 10.3 78 2.0 NW 33 41 18 22 1017.4 - 0.6
30/07:00am 13.1 10.4 10.4 84 1.4 NW 15 20 8 11 1017.2 - 0.6
30/06:30am 13.6 10.6 10.5 81 1.6 NW 17 22 9 12 1017.2 1017.2 0.6
30/06:00am 14.2 10.9 10.8 80 1.8 NW 19 28 10 15 1017.0 1017.0 0.6
30/05:30am 14.4 12.4 10.2 76 2.2 NW 11 20 6 11 1016.6 1016.6 0.6
30/05:00am 14.5 11.3 9.9 74 2.4 WNW 17 24 9 13 1016.6 - 0.6
30/04:30am 13.9 11.2 10.5 80 1.8 WNW 15 22 8 12 1016.6 1016.6 0.6
30/04:00am 14.4 11.0 10.4 77 2.1 WNW 19 24 10 13 1017.0 - 0.6
30/03:30am 13.7 10.4 10.8 83 1.5 WNW 19 28 10 15 1016.8 1016.8 0.6
30/03:00am 14.2 10.8 10.6 79 1.9 W 19 30 10 16 1017.0 1017.0 0.6
30/02:30am 14.1 10.7 10.7 80 1.8 WNW 19 26 10 14 1017.1 1017.1 0.6
30/02:00am 13.8 10.7 10.3 79 1.8 NW 17 24 9 13 1017.4 - 0.6
30/01:30am 13.5 10.5 10.6 82 1.5 WNW 17 24 9 13 1017.6 1017.6 0.6
30/01:00am 13.6 10.6 10.5 81 1.6 NW 17 22 9 12 1017.6 - 0.6
30/12:30am 14.2 11.3 11.0 81 1.7 NW 17 26 9 14 1017.7 1017.7 0.6
30/12:00am 14.6 11.4 11.2 80 1.8 WNW 19 26 10 14 1017.9 1017.9 0.6
 
Date/Time
CST
Tmp

°C
App
Tmp
°C
Dew
Point
°C
Rel
Hum
%
Delta-T

°C
Wind Press
QNH
hPa
Press
MSL
hPa
Rain
since
9 am
mm
Dir
 
Spd
km/h
Gust
km/h
Spd
kts
Gust
kts
29/11:30pm 14.6 11.1 10.8 78 2.0 WNW 20 30 11 16 1018.0 1018.0 0.6
29/11:00pm 14.7 11.3 11.3 80 1.8 NW 20 32 11 17 1017.8 - 0.6
29/10:30pm 14.9 11.8 11.7 81 1.7 NW 19 26 10 14 1017.9 1017.9 0.6
29/10:00pm 14.9 11.7 11.3 79 1.9 WNW 19 26 10 14 1018.0 - 0.6
29/09:30pm 14.4 11.2 11.4 82 1.6 WNW 19 26 10 14 1018.0 1018.0 0.6
29/09:00pm 14.4 12.2 12.2 87 1.2 NW 15 20 8 11 1018.0 1018.0 0.6
29/08:30pm 14.8 12.1 11.8 82 1.6 WNW 17 28 9 15 1017.8 1017.8 0.6
29/08:00pm 14.5 12.5 11.5 82 1.6 WNW 13 19 7 10 1017.5 - 0.6
29/07:30pm 13.8 12.2 12.7 93 0.6 NW 13 20 7 11 1017.5 1017.5 0.6
29/07:00pm 14.7 12.3 12.7 88 1.1 NW 17 24 9 13 1017.0 - 0.2
29/06:30pm 15.4 13.2 12.1 81 1.8 NW 15 24 8 13 1016.7 1016.7 0.2
29/06:00pm 15.2 13.6 12.7 85 1.4 NW 13 24 7 13 1016.6 1016.6 0.2
29/05:30pm 15.2 13.5 12.5 84 1.5 WNW 13 20 7 11 1016.5 1016.5 0.2
29/05:00pm 15.8 13.5 13.1 84 1.5 WNW 17 26 9 14 1016.4 - 0.2
29/04:30pm 16.3 15.0 13.6 84 1.5 NW 13 19 7 10 1015.9 1015.9 0.2
29/04:00pm 16.2 13.6 13.7 85 1.4 WNW 20 32 11 17 1015.8 - 0.2
29/03:30pm 16.3 13.7 13.8 85 1.4 WNW 20 32 11 17 1015.5 1015.5 0.2
29/03:00pm 16.5 13.6 14.0 85 1.4 NW 22 33 12 18 1015.5 1015.5 0.2
29/02:30pm 16.5 14.0 14.0 85 1.4 WNW 20 39 11 21 1015.3 1015.3 0.2
29/02:00pm 17.0 14.2 14.2 83 1.6 WNW 22 48 12 26 1015.1 - 0.2
29/01:30pm 17.1 13.1 14.1 82 1.7 WNW 28 48 15 26 1015.1 1015.1 0.2
29/01:00pm 16.4 12.3 13.9 85 1.4 WNW 28 46 15 25 1015.0 - 0.2
29/12:31pm 16.3 12.1 13.6 84 1.5 NW 28 46 15 25 1015.0 - 0.2
29/12:30pm 16.4 12.6 13.7 84 1.5 NW 26 46 14 25 1015.1 1015.1 0.2
29/12:21pm 16.4 12.3 13.9 85 1.4 NW 28 46 15 25 1015.2 - 0.2
29/12:00pm 16.4 11.5 13.7 84 1.5 WNW 32 46 17 25 1015.4 1015.4 0.2
29/11:45am 16.3 12.1 13.5 83 1.6 WNW 28 46 15 25 1015.7 - 0.2
29/11:30am 16.3 12.5 13.6 84 1.5 NW 26 43 14 23 1015.9 1015.9 0.2
29/11:00am 16.7 12.2 13.9 83 1.6 NW 30 41 16 22 1015.9 - 0.2
29/10:30am 16.4 11.8 12.2 76 2.3 NW 28 43 15 23 1015.8 1015.8 0.2
29/10:00am 15.8 10.3 11.7 76 2.2 WNW 32 50 17 27 1015.9 - 0.2
29/09:55am 15.7 10.7 11.0 73 2.5 WNW 28 46 15 25 1015.8 - 0.2
29/09:30am 15.2 11.4 11.1 76 2.2 NW 22 32 12 17 1015.6 1015.6 0.0
29/09:00am 14.3 12.8 10.7 79 1.9 WSW 9 17 5 9 1015.6 1015.6 -
29/08:57am 14.2 7.8 10.6 79 1.9 WSW 35 59 19 32 1015.6 - -
29/08:30am 13.9 10.3 10.5 80 1.8 NW 20 30 11 16 1015.2 1015.2 -
29/08:00am 13.2 10.8 9.9 80 1.7 NNW 13 20 7 11 1015.2 - -
29/07:30am 12.2 8.8 9.2 82 1.5 NNW 17 24 9 13 1015.1 1015.1 -
29/07:00am 12.6 8.8 9.2 80 1.7 NW 19 26 10 14 1015.0 - -
29/06:30am 12.0 8.6 9.2 83 1.4 NNW 17 22 9 12 1014.5 1014.5 -
29/06:00am 12.4 9.1 9.4 82 1.5 NW 17 20 9 11 1014.7 1014.7 -
29/05:30am 12.6 9.0 9.9 83 1.4 NW 19 28 10 15 1015.0 1015.0 -
29/05:00am 12.7 10.3 10.2 85 1.3 WNW 13 24 7 13 1014.1 - -
29/04:30am 13.5 8.4 10.6 82 1.5 WNW 28 43 15 23 1013.4 1013.4 -
29/04:13am 13.5 8.4 10.6 82 1.5 WNW 28 46 15 25 1013.3 - -
29/04:00am 13.6 7.7 10.5 81 1.6 WNW 32 46 17 25 1013.3 - -
29/03:50am 13.7 7.7 10.7 82 1.6 WNW 33 54 18 29 1013.2 - -
29/03:30am 13.6 8.1 10.5 81 1.6 WNW 30 43 16 23 1013.5 1013.5 -
29/03:00am 13.8 7.4 8.6 71 2.6 WNW 32 50 17 27 1013.2 1013.2 0.0
29/02:30am 13.7 8.8 6.9 63 3.3 WNW 22 41 12 22 1013.9 1013.9 -
29/02:00am 13.0 9.7 6.3 64 3.2 WNW 13 22 7 12 1014.2 - -
29/01:30am 12.5 9.9 5.9 64 3.1 NW 9 15 5 8 1014.6 1014.6 -
29/01:00am 9.3 7.1 5.1 75 1.9 ENE 6 7 3 4 1014.9 - -
29/12:30am 8.7 6.5 5.4 80 1.5 NNE 6 9 3 5 1015.3 1015.3 -
29/12:00am 9.6 7.4 6.1 79 1.6 N 7 11 4 6 1015.6 1015.6 -
 
Date/Time
CST
Tmp

°C
App
Tmp
°C
Dew
Point
°C
Rel
Hum
%
Delta-T

°C
Wind Press
QNH
hPa
Press
MSL
hPa
Rain
since
9 am
mm
Dir
 
Spd
km/h
Gust
km/h
Spd
kts
Gust
kts
28/11:30pm 9.4 7.5 6.8 84 1.2 N 6 9 3 5 1015.8 1015.8 -
28/11:00pm 9.6 7.2 7.1 84 1.2 NNW 9 13 5 7 1016.1 - -

Latest Capital City Observations: Canberra | Sydney | Melbourne | Brisbane | Adelaide | Perth | Hobart | Darwin

Other Formats:

Comma delimited format used in spreadsheet applications
http://www.bom.gov.au/fwo/IDS60901/IDS60901.95818.axf

JavaScript Object Notation format (JSON) in row-major order
http://www.bom.gov.au/fwo/IDS60901/IDS60901.95818.json